Time;durP1;ratioP1;P1;durP2;ratioP2;P2;SDS_P1;SDS_P2;PMS_P1;PMS_P2;Temp;Humidity;BMP_temperature;BMP_pressure;BME280_temperature;BME280_humidity;BME280_pressure;Samples;Min_cycle;Max_cycle;Signal;HPM_P1;HPM_P2
2021/05/09 00:00:54;;;;;;;4.70;3.20;;;12.70;99.90;;;;;;5012078;28;20069;-72
2021/05/09 00:03:21;;;;;;;8.20;2.83;;;12.70;99.90;;;;;;5013728;28;20037;-78
2021/05/09 00:05:47;;;;;;;5.78;3.38;;;12.70;99.90;;;;;;5011578;28;20095;-73
2021/05/09 00:08:13;;;;;;;5.05;2.90;;;12.70;99.90;;;;;;5010946;28;20030;-84
2021/05/09 00:10:39;;;;;;;4.97;3.15;;;12.70;99.90;;;;;;5010738;28;20026;-75
2021/05/09 00:13:04;;;;;;;4.43;3.00;;;12.60;99.90;;;;;;5011820;28;20057;-84
2021/05/09 00:15:30;;;;;;;7.85;2.70;;;12.60;99.90;;;;;;4995519;28;20483;-78
2021/05/09 00:17:56;;;;;;;4.93;3.03;;;12.60;99.90;;;;;;5010247;28;20026;-75
2021/05/09 00:20:22;;;;;;;6.18;3.15;;;12.60;99.90;;;;;;5010368;28;20386;-79
2021/05/09 00:22:47;;;;;;;7.75;3.78;;;12.60;99.90;;;;;;5012093;28;20033;-73
2021/05/09 00:25:13;;;;;;;7.38;3.22;;;12.70;99.90;;;;;;5009072;28;20125;-72
2021/05/09 00:27:40;;;;;;;5.13;3.25;;;12.70;99.90;;;;;;5010070;28;20033;-80
2021/05/09 00:30:07;;;;;;;5.95;3.55;;;12.70;99.90;;;;;;5007078;28;20121;-74
2021/05/09 00:32:33;;;;;;;5.00;3.17;;;12.70;99.90;;;;;;5000404;28;20041;-74
2021/05/09 00:34:58;;;;;;;4.32;2.97;;;12.70;99.90;;;;;;5011095;28;20038;-80
2021/05/09 00:37:24;;;;;;;4.93;2.90;;;12.70;99.90;;;;;;5011618;28;20033;-74
2021/05/09 00:39:50;;;;;;;5.80;3.10;;;12.70;99.90;;;;;;5008218;28;20113;-72
2021/05/09 00:42:17;;;;;;;3.25;2.70;;;12.70;99.90;;;;;;5011820;28;20041;-76
2021/05/09 00:44:43;;;;;;;3.72;2.97;;;12.70;99.90;;;;;;5008683;28;20076;-74
2021/05/09 00:47:11;;;;;;;3.83;3.08;;;12.60;99.90;;;;;;4997296;28;20122;-84
2021/05/09 00:49:38;;;;;;;5.70;2.72;;;12.60;99.90;;;;;;4998017;28;20042;-74
2021/05/09 00:52:05;;;;;;;5.50;3.10;;;12.60;99.90;;;;;;5012047;28;20022;-73
2021/05/09 00:54:33;;;;;;;6.85;3.35;;;12.60;99.90;;;;;;5002516;28;20077;-74
2021/05/09 00:57:00;;;;;;;3.53;2.85;;;12.60;99.90;;;;;;4999258;28;20046;-73
2021/05/09 00:59:28;;;;;;;4.75;3.28;;;12.60;99.90;;;;;;5012915;28;20064;-73
2021/05/09 01:01:55;;;;;;;7.53;3.22;;;12.60;99.90;;;;;;5010175;28;20034;-73
2021/05/09 01:04:21;;;;;;;6.95;3.65;;;12.60;99.90;;;;;;5012496;28;20034;-72
2021/05/09 01:06:49;;;;;;;5.97;3.53;;;12.60;99.90;;;;;;5007394;28;20022;-72
2021/05/09 01:09:14;;;;;;;5.97;3.60;;;12.50;99.90;;;;;;5007375;28;20065;-73
2021/05/09 01:11:43;;;;;;;6.45;4.07;;;12.50;99.90;;;;;;4996766;28;20482;-73
2021/05/09 01:14:09;;;;;;;7.22;4.03;;;12.50;99.90;;;;;;5012918;28;20037;-80
2021/05/09 01:16:35;;;;;;;5.85;4.03;;;12.50;99.90;;;;;;5012339;28;20496;-72
2021/05/09 01:19:00;;;;;;;6.88;3.78;;;12.50;99.90;;;;;;5013038;28;20030;-73
2021/05/09 01:21:26;;;;;;;6.78;4.28;;;12.60;99.90;;;;;;5006613;28;20041;-72
2021/05/09 01:23:52;;;;;;;9.15;3.80;;;12.50;99.90;;;;;;5011925;28;20042;-76
2021/05/09 01:26:18;;;;;;;7.75;3.83;;;12.60;99.90;;;;;;5005548;28;20085;-71
2021/05/09 01:28:45;;;;;;;6.32;3.85;;;12.60;99.90;;;;;;5009561;28;20423;-74
2021/05/09 01:31:10;;;;;;;8.43;4.18;;;12.60;99.90;;;;;;5010112;28;20033;-72
2021/05/09 01:33:36;;;;;;;8.45;3.55;;;12.60;99.90;;;;;;4997476;28;20042;-73
2021/05/09 01:36:02;;;;;;;5.15;3.58;;;12.70;99.90;;;;;;5000397;28;20022;-72
2021/05/09 01:38:28;;;;;;;5.28;3.25;;;12.70;99.90;;;;;;5005722;28;20088;-72
2021/05/09 01:40:54;;;;;;;7.13;3.92;;;12.70;99.90;;;;;;4999934;28;20418;-72
2021/05/09 01:43:20;;;;;;;6.03;3.25;;;12.70;99.90;;;;;;5011109;28;20092;-73
2021/05/09 01:45:45;;;;;;;5.43;3.05;;;12.80;99.90;;;;;;4997664;28;20038;-72
2021/05/09 01:48:11;;;;;;;6.50;3.75;;;12.80;99.90;;;;;;5000175;28;20121;-72
2021/05/09 01:50:38;;;;;;;5.15;3.47;;;12.80;99.90;;;;;;4998235;28;20121;-73
2021/05/09 01:53:04;;;;;;;6.20;3.50;;;12.80;99.90;;;;;;5012244;28;20026;-72
2021/05/09 01:55:30;;;;;;;5.47;3.33;;;12.80;99.90;;;;;;5005938;28;20042;-73
2021/05/09 01:57:56;;;;;;;5.32;3.53;;;12.80;99.90;;;;;;4998087;28;20034;-74
2021/05/09 02:00:23;;;;;;;4.90;2.90;;;12.80;99.90;;;;;;5006678;28;20045;-78
2021/05/09 02:02:48;;;;;;;8.00;3.38;;;12.80;99.90;;;;;;5000214;28;20022;-77
2021/05/09 02:05:15;;;;;;;4.20;3.20;;;12.80;99.90;;;;;;4999380;28;20508;-76
2021/05/09 02:07:41;;;;;;;5.43;3.28;;;12.70;99.90;;;;;;5010793;28;20044;-73
2021/05/09 02:10:09;;;;;;;10.43;2.72;;;12.70;99.90;;;;;;5011980;28;20442;-72
2021/05/09 02:12:36;;;;;;;6.00;3.63;;;12.70;99.90;;;;;;5012217;28;20030;-73
2021/05/09 02:15:03;;;;;;;4.93;3.30;;;12.70;99.90;;;;;;5000111;28;20157;-72
2021/05/09 02:17:29;;;;;;;6.57;3.70;;;12.70;99.90;;;;;;5004000;28;20042;-76
2021/05/09 02:19:55;;;;;;;4.53;3.30;;;12.70;99.90;;;;;;5007070;28;20164;-79
2021/05/09 02:22:20;;;;;;;4.50;3.17;;;12.70;99.90;;;;;;5011683;28;20466;-78
2021/05/09 02:24:46;;;;;;;4.30;3.20;;;12.70;99.90;;;;;;5011154;28;20057;-74
2021/05/09 02:27:12;;;;;;;7.35;3.90;;;12.70;99.90;;;;;;5007444;28;20029;-74
2021/05/09 02:29:38;;;;;;;7.78;4.28;;;12.80;99.90;;;;;;5001734;28;20439;-72
2021/05/09 02:32:05;;;;;;;6.43;4.32;;;12.80;99.90;;;;;;5010477;28;20068;-73
2021/05/09 02:34:35;;;;;;;6.13;4.20;;;12.80;99.90;;;;;;5006028;28;20049;-76
2021/05/09 02:37:03;;;;;;;9.57;4.63;;;12.80;99.90;;;;;;5002047;28;20026;-74
2021/05/09 02:39:29;;;;;;;6.22;4.07;;;12.80;99.90;;;;;;5004253;28;20041;-72
2021/05/09 02:41:55;;;;;;;21.73;4.38;;;12.70;99.90;;;;;;5008351;28;20113;-76
2021/05/09 02:44:20;;;;;;;7.95;4.10;;;12.70;99.90;;;;;;5012194;28;20611;-75
2021/05/09 02:46:46;;;;;;;6.60;4.00;;;12.70;99.90;;;;;;5008676;28;20030;-78
2021/05/09 02:49:12;;;;;;;4.88;3.42;;;12.70;99.90;;;;;;5012029;28;20092;-72
2021/05/09 02:51:38;;;;;;;8.05;4.25;;;12.70;99.90;;;;;;5001218;28;20069;-73
2021/05/09 02:54:04;;;;;;;6.57;4.10;;;12.60;99.90;;;;;;5008751;28;20126;-72
2021/05/09 02:56:29;;;;;;;6.70;3.67;;;12.70;99.90;;;;;;4997144;28;20046;-72
2021/05/09 02:58:55;;;;;;;5.97;4.07;;;12.70;99.90;;;;;;5003480;28;20030;-73
2021/05/09 03:01:21;;;;;;;6.38;3.60;;;12.60;99.90;;;;;;5001303;28;20073;-80
2021/05/09 03:03:47;;;;;;;9.23;4.18;;;12.60;99.90;;;;;;5015656;28;20057;-73
2021/05/09 03:06:12;;;;;;;9.68;3.70;;;12.50;99.90;;;;;;5013760;28;20041;-78
2021/05/09 03:08:38;;;;;;;9.63;4.00;;;12.50;99.90;;;;;;5004709;28;20096;-76
2021/05/09 03:11:04;;;;;;;11.80;4.20;;;12.40;99.90;;;;;;5013942;28;20030;-73
2021/05/09 03:13:32;;;;;;;4.93;3.53;;;12.40;99.90;;;;;;5015357;28;20490;-75
2021/05/09 03:16:00;;;;;;;6.53;4.03;;;12.40;99.90;;;;;;5012143;28;20502;-76
2021/05/09 03:18:27;;;;;;;5.93;3.88;;;12.40;99.90;;;;;;5008822;28;20694;-81
2021/05/09 03:20:53;;;;;;;9.00;4.63;;;12.40;99.90;;;;;;5011880;28;20430;-74
2021/05/09 03:23:19;;;;;;;7.47;4.90;;;12.40;99.90;;;;;;5015228;28;20085;-74
2021/05/09 03:25:46;;;;;;;6.00;4.10;;;12.40;99.90;;;;;;5011739;28;20045;-75
2021/05/09 03:28:11;;;;;;;7.15;4.32;;;12.40;99.90;;;;;;5012641;28;20041;-73
2021/05/09 03:30:37;;;;;;;6.60;4.30;;;12.40;99.90;;;;;;5015182;28;20372;-73
2021/05/09 03:33:03;;;;;;;7.97;4.68;;;12.30;99.90;;;;;;5009530;28;20062;-73
2021/05/09 03:35:29;;;;;;;6.68;4.20;;;12.30;99.90;;;;;;5013861;28;20045;-75
2021/05/09 03:37:54;;;;;;;7.88;4.68;;;12.10;99.90;;;;;;5014384;28;20080;-78
2021/05/09 03:40:20;;;;;;;5.00;3.92;;;12.00;99.90;;;;;;5014698;28;20037;-74
2021/05/09 03:42:46;;;;;;;7.22;3.85;;;12.00;99.90;;;;;;5014733;28;20037;-73
2021/05/09 03:45:12;;;;;;;5.40;4.13;;;12.00;99.90;;;;;;5011811;28;20442;-73
2021/05/09 03:47:38;;;;;;;7.18;4.65;;;12.00;99.90;;;;;;5009718;28;20179;-73
2021/05/09 03:50:05;;;;;;;8.15;4.38;;;12.10;99.90;;;;;;5014034;28;20117;-74
2021/05/09 03:52:31;;;;;;;6.65;4.40;;;12.20;99.90;;;;;;5013392;28;20099;-83
2021/05/09 03:54:57;;;;;;;8.45;4.13;;;12.20;99.90;;;;;;5014296;28;20042;-75
2021/05/09 03:57:23;;;;;;;5.70;3.78;;;12.20;99.90;;;;;;5007635;28;20504;-72
2021/05/09 03:59:49;;;;;;;6.55;4.13;;;12.20;99.90;;;;;;5014549;28;20084;-74
2021/05/09 04:02:15;;;;;;;8.52;3.72;;;12.10;99.90;;;;;;5014250;28;20429;-73
2021/05/09 04:04:41;;;;;;;6.30;3.30;;;12.10;99.90;;;;;;5014166;28;20394;-73
2021/05/09 04:07:07;;;;;;;7.97;3.75;;;12.20;99.90;;;;;;5006103;28;20027;-73
2021/05/09 04:09:32;;;;;;;15.27;4.43;;;12.20;99.90;;;;;;5010269;28;20037;-72
2021/05/09 04:11:58;;;;;;;7.00;4.40;;;12.20;99.90;;;;;;5013127;28;20074;-73
2021/05/09 04:14:24;;;;;;;6.35;4.10;;;12.10;99.90;;;;;;5013795;28;20044;-73
2021/05/09 04:16:49;;;;;;;5.35;3.45;;;12.10;99.90;;;;;;5008115;28;20467;-72
2021/05/09 04:19:15;;;;;;;6.07;3.80;;;12.00;99.90;;;;;;5005646;28;20087;-79
2021/05/09 04:21:41;;;;;;;10.07;3.63;;;12.00;99.90;;;;;;5013134;28;20081;-77
2021/05/09 04:24:08;;;;;;;9.95;3.78;;;12.10;99.90;;;;;;5014013;28;20121;-72
2021/05/09 04:26:34;;;;;;;5.63;3.75;;;12.00;99.90;;;;;;5013227;28;20393;-74
2021/05/09 04:29:00;;;;;;;5.93;4.00;;;12.10;99.90;;;;;;5013247;28;20121;-74
2021/05/09 04:31:25;;;;;;;7.88;4.25;;;12.10;99.90;;;;;;5013592;28;20472;-73
2021/05/09 04:33:51;;;;;;;10.70;3.38;;;12.10;99.90;;;;;;5004547;28;20056;-76
2021/05/09 04:36:17;;;;;;;9.75;4.05;;;12.10;99.90;;;;;;5012330;28;20126;-73
2021/05/09 04:38:43;;;;;;;7.72;3.10;;;12.20;99.90;;;;;;5011928;28;20041;-72
2021/05/09 04:41:08;;;;;;;4.28;3.33;;;12.40;99.90;;;;;;5013548;28;20409;-73
2021/05/09 04:43:35;;;;;;;8.18;3.38;;;12.80;99.90;;;;;;5017179;28;20053;-74
2021/05/09 04:46:01;;;;;;;5.30;2.88;;;13.50;99.90;;;;;;5005276;28;20030;-71
2021/05/09 04:48:27;;;;;;;4.07;2.72;;;14.20;99.90;;;;;;5012325;28;20121;-72
2021/05/09 04:50:53;;;;;;;4.40;2.88;;;14.90;99.90;;;;;;5000323;28;20133;-73
2021/05/09 04:53:21;;;;;;;4.05;2.33;;;15.50;99.90;;;;;;5013306;28;20402;-73
2021/05/09 04:55:47;;;;;;;7.35;3.08;;;16.20;99.90;;;;;;5002941;28;20570;-83
2021/05/09 04:58:13;;;;;;;5.60;2.08;;;16.50;99.90;;;;;;5012285;28;20030;-75
2021/05/09 05:00:38;;;;;;;4.30;2.33;;;16.80;99.90;;;;;;5008187;28;20034;-74
2021/05/09 05:03:04;;;;;;;3.78;2.58;;;17.20;99.90;;;;;;5012137;28;20038;-74
2021/05/09 05:05:30;;;;;;;6.20;2.47;;;17.80;99.90;;;;;;5012941;28;20033;-73
2021/05/09 05:07:55;;;;;;;5.57;2.10;;;18.10;99.90;;;;;;5003556;28;20476;-81
2021/05/09 05:10:21;;;;;;;3.28;2.58;;;18.40;99.90;;;;;;5010181;28;20047;-73
2021/05/09 05:12:47;;;;;;;5.40;2.90;;;19.00;99.90;;;;;;5007668;28;20072;-81
2021/05/09 05:15:13;;;;;;;10.20;2.38;;;19.40;99.90;;;;;;5012473;28;20443;-84
2021/05/09 05:17:39;;;;;;;4.03;3.20;;;19.60;99.90;;;;;;5006947;28;20030;-73
2021/05/09 05:20:05;;;;;;;8.35;2.88;;;20.10;99.90;;;;;;5012221;28;20080;-73
2021/05/09 05:22:30;;;;;;;3.58;2.70;;;20.20;99.90;;;;;;5003128;28;20034;-79
2021/05/09 05:24:56;;;;;;;6.03;2.80;;;20.50;99.90;;;;;;5011521;28;20033;-74
2021/05/09 05:27:22;;;;;;;3.92;2.55;;;20.80;99.90;;;;;;5002260;28;20035;-73
2021/05/09 05:29:47;;;;;;;2.85;2.25;;;20.90;99.90;;;;;;5004020;28;20053;-73
2021/05/09 05:32:13;;;;;;;5.43;2.28;;;21.20;99.90;;;;;;5001388;28;20176;-81
2021/05/09 05:34:39;;;;;;;7.53;2.08;;;21.50;99.90;;;;;;5012719;28;20041;-74
2021/05/09 05:37:04;;;;;;;4.53;1.38;;;21.60;99.90;;;;;;5012539;28;20113;-75
2021/05/09 05:39:30;;;;;;;2.67;1.80;;;21.80;99.30;;;;;;5005418;28;20096;-73
2021/05/09 05:41:56;;;;;;;2.03;1.40;;;22.00;98.90;;;;;;4996264;28;20018;-80
2021/05/09 05:44:22;;;;;;;2.78;1.63;;;22.40;98.40;;;;;;5009051;28;20065;-80
2021/05/09 05:46:48;;;;;;;5.50;1.70;;;22.50;98.30;;;;;;5006253;28;20096;-74
2021/05/09 05:49:14;;;;;;;2.92;1.60;;;22.80;97.50;;;;;;5012467;28;20367;-74
2021/05/09 05:51:40;;;;;;;1.38;1.27;;;23.10;97.30;;;;;;5011771;28;20449;-76
2021/05/09 05:54:06;;;;;;;2.28;1.50;;;23.40;96.70;;;;;;5011393;28;20141;-74
2021/05/09 05:56:31;;;;;;;1.80;1.17;;;23.80;96.10;;;;;;5006200;28;20042;-75
2021/05/09 05:58:57;;;;;;;3.85;1.48;;;24.00;95.10;;;;;;5009108;28;20038;-74
2021/05/09 06:01:23;;;;;;;3.63;1.00;;;24.10;94.90;;;;;;5010244;28;20501;-74
2021/05/09 06:03:48;;;;;;;0.90;0.80;;;24.50;93.80;;;;;;5004597;28;20109;-73
2021/05/09 06:06:14;;;;;;;1.58;1.20;;;24.70;93.50;;;;;;5008745;28;20117;-76
2021/05/09 06:08:41;;;;;;;3.92;0.85;;;24.90;92.70;;;;;;5004909;28;20442;-75
2021/05/09 06:11:07;;;;;;;1.05;0.70;;;25.10;91.80;;;;;;5003756;28;20026;-75
2021/05/09 06:13:33;;;;;;;0.95;0.70;;;25.10;91.70;;;;;;5012226;28;20073;-75
2021/05/09 06:15:59;;;;;;;1.40;0.80;;;25.20;91.30;;;;;;5011780;28;20150;-75
2021/05/09 06:18:25;;;;;;;2.15;0.80;;;25.40;90.90;;;;;;5000417;28;20120;-74
2021/05/09 06:20:51;;;;;;;3.70;1.23;;;25.70;90.80;;;;;;5002485;28;20037;-75
2021/05/09 06:23:22;;;;;;;1.55;0.80;;;25.90;90.70;;;;;;5008736;28;20029;-73
2021/05/09 06:25:48;;;;;;;2.42;1.10;;;26.10;90.50;;;;;;5012204;28;20030;-74
2021/05/09 06:28:14;;;;;;;12.45;1.05;;;26.50;90.10;;;;;;5009846;28;20030;-73
2021/05/09 06:30:39;;;;;;;0.82;0.82;;;27.20;88.70;;;;;;5006159;28;20095;-75
2021/05/09 06:33:05;;;;;;;2.17;0.90;;;27.60;86.90;;;;;;5011231;28;20121;-73
2021/05/09 06:35:36;;;;;;;1.48;0.80;;;27.90;85.30;;;;;;5016205;28;20060;-74
2021/05/09 06:38:02;;;;;;;;;;;27.90;84.40;;;;;;5015703;28;20044;-73
2021/05/09 06:40:28;;;;;;;1.27;0.88;;;28.20;82.80;;;;;;5010050;28;20311;-74
2021/05/09 06:43:00;;;;;;;2.55;0.98;;;28.30;82.20;;;;;;5016039;28;20070;-77
2021/05/09 06:45:28;;;;;;;0.80;0.77;;;28.60;80.80;;;;;;5015606;28;20037;-75
2021/05/09 06:47:57;;;;;;;1.02;0.90;;;28.60;80.30;;;;;;5013853;28;20038;-73
2021/05/09 06:50:24;;;;;;;0.90;0.70;;;28.70;79.00;;;;;;5013012;28;20541;-77
2021/05/09 06:52:50;;;;;;;1.50;1.20;;;28.70;78.60;;;;;;5010928;28;20041;-77
2021/05/09 06:55:16;;;;;;;1.75;0.80;;;29.00;76.90;;;;;;5011594;28;20042;-73
2021/05/09 06:57:42;;;;;;;2.08;1.25;;;29.20;76.70;;;;;;5014392;28;20463;-74
2021/05/09 07:00:09;;;;;;;1.77;1.08;;;29.30;75.60;;;;;;5016156;28;20048;-75
2021/05/09 07:02:35;;;;;;;2.90;1.40;;;29.90;74.20;;;;;;4999061;28;20061;-74
2021/05/09 07:05:02;;;;;;;8.52;1.88;;;30.50;73.30;;;;;;5007452;28;20037;-77
2021/05/09 07:07:28;;;;;;;2.75;0.95;;;30.60;72.20;;;;;;5015963;28;20478;-80
2021/05/09 07:09:53;;;;;;;1.60;1.33;;;30.60;70.60;;;;;;5015929;28;20064;-84
2021/05/09 07:12:19;;;;;;;3.35;1.23;;;30.20;73.10;;;;;;5004868;28;20081;-74
2021/05/09 07:14:45;;;;;;;13.48;1.70;;;30.00;74.20;;;;;;5011334;28;20104;-75
2021/05/09 07:17:12;;;;;;;3.95;1.42;;;29.60;74.70;;;;;;5015407;28;20030;-75
2021/05/09 07:19:37;;;;;;;3.13;1.20;;;29.00;76.30;;;;;;5015584;28;20026;-73
2021/05/09 07:22:07;;;;;;;8.27;1.38;;;28.40;77.70;;;;;;5013814;28;20448;-74
2021/05/09 07:24:33;;;;;;;4.55;1.60;;;27.90;78.60;;;;;;5005875;28;20031;-73
2021/05/09 07:26:59;;;;;;;2.45;1.55;;;27.50;79.20;;;;;;5014620;28;20034;-74
2021/05/09 07:29:25;;;;;;;11.25;1.55;;;27.10;80.00;;;;;;5014975;28;20037;-75
2021/05/09 07:31:50;;;;;;;2.75;0.98;;;26.90;80.40;;;;;;5006322;28;20030;-73
2021/05/09 07:34:16;;;;;;;6.32;1.63;;;26.60;80.80;;;;;;5013869;28;20080;-77
2021/05/09 07:36:42;;;;;;;4.07;1.25;;;26.30;80.90;;;;;;5009110;28;20022;-75
2021/05/09 07:39:08;;;;;;;9.52;2.50;;;26.10;81.20;;;;;;5005742;28;20085;-81
2021/05/09 07:41:34;;;;;;;4.38;2.03;;;25.90;81.70;;;;;;5013101;28;20034;-76
2021/05/09 07:44:02;;;;;;;8.43;2.13;;;25.80;82.40;;;;;;5003828;28;20042;-73
2021/05/09 07:46:28;;;;;;;4.47;1.90;;;25.70;83.50;;;;;;5013128;28;20034;-75
2021/05/09 07:48:53;;;;;;;7.93;2.50;;;25.70;83.50;;;;;;5004154;28;20049;-74
2021/05/09 07:51:19;;;;;;;10.73;2.45;;;25.70;84.00;;;;;;5005262;28;20037;-74
2021/05/09 07:53:46;;;;;;;8.05;3.05;;;25.70;84.80;;;;;;5008406;28;20387;-74
2021/05/09 07:56:12;;;;;;;16.05;3.33;;;25.70;85.30;;;;;;5006111;28;20380;-76
2021/05/09 07:58:38;;;;;;;6.57;3.45;;;25.60;86.70;;;;;;5011147;28;20084;-77
2021/05/09 08:01:04;;;;;;;11.15;3.00;;;25.40;88.80;;;;;;5007671;28;20076;-76
2021/05/09 08:03:30;;;;;;;8.15;2.80;;;25.40;89.50;;;;;;5008641;28;20045;-76
2021/05/09 08:05:56;;;;;;;6.28;2.88;;;25.40;89.90;;;;;;5016691;28;20042;-75
2021/05/09 08:08:26;;;;;;;6.80;3.38;;;25.10;90.20;;;;;;5011798;28;20069;-74
2021/05/09 08:10:52;;;;;;;12.13;4.30;;;25.00;90.60;;;;;;5013031;28;20049;-74
2021/05/09 08:13:18;;;;;;;9.00;4.57;;;24.90;90.80;;;;;;5012690;28;20030;-74
2021/05/09 08:15:43;;;;;;;8.38;4.50;;;24.80;90.20;;;;;;5013582;28;20181;-75
2021/05/09 08:18:09;;;;;;;7.90;4.53;;;24.70;90.00;;;;;;5016426;28;20368;-78
2021/05/09 08:20:36;;;;;;;7.53;4.70;;;24.60;89.30;;;;;;5005020;28;20112;-74
2021/05/09 08:23:03;;;;;;;8.32;5.20;;;24.40;88.80;;;;;;5005505;28;20030;-82
2021/05/09 08:25:29;;;;;;;10.65;5.97;;;24.10;88.30;;;;;;5012651;28;20026;-77
2021/05/09 08:27:55;;;;;;;12.15;4.85;;;24.00;87.70;;;;;;5013234;28;20026;-74
2021/05/09 08:30:22;;;;;;;9.68;4.95;;;24.00;86.80;;;;;;5010109;28;20367;-74
2021/05/09 08:32:49;;;;;;;8.43;5.03;;;23.90;86.20;;;;;;5011232;28;20438;-76
2021/05/09 08:35:14;;;;;;;8.88;5.50;;;23.90;86.40;;;;;;5011306;28;20034;-74
2021/05/09 08:37:41;;;;;;;9.43;4.57;;;24.00;87.20;;;;;;5007641;28;20034;-77
2021/05/09 08:40:09;;;;;;;7.50;4.65;;;24.00;87.50;;;;;;5007775;28;20034;-72
2021/05/09 08:42:34;;;;;;;8.07;5.00;;;24.00;87.30;;;;;;4996841;28;20072;-74
2021/05/09 08:45:00;;;;;;;9.55;4.90;;;23.80;87.90;;;;;;5008599;28;20077;-74
2021/05/09 08:47:42;;;;;;;9.93;5.38;;;23.80;87.80;;;;;;5012734;28;20034;-75
2021/05/09 08:50:09;;;;;;;6.88;4.65;;;23.70;88.50;;;;;;5010847;28;20068;-75
2021/05/09 08:52:36;;;;;;;11.32;5.55;;;23.60;88.10;;;;;;5011856;28;20061;-76
2021/05/09 08:55:08;;;;;;;11.82;5.25;;;23.60;89.90;;;;;;5011362;28;20498;-76
2021/05/09 08:57:34;;;;;;;;;;;23.50;90.00;;;;;;5013362;28;20026;-76
2021/05/09 08:59:59;;;;;;;12.73;5.82;;;23.60;90.30;;;;;;5008325;28;20271;-74
2021/05/09 09:02:26;;;;;;;16.42;4.25;;;23.50;90.50;;;;;;5008241;28;20479;-76
2021/05/09 09:04:54;;;;;;;13.55;5.40;;;23.60;90.60;;;;;;5004515;28;20038;-74
2021/05/09 09:07:21;;;;;;;14.82;7.20;;;23.70;90.40;;;;;;5005537;28;20049;-73
2021/05/09 09:09:51;;;;;;;15.52;10.13;;;23.80;90.40;;;;;;5009135;28;20026;-76
2021/05/09 09:12:18;;;;;;;9.43;5.55;;;23.60;90.70;;;;;;5002347;28;20037;-73
2021/05/09 09:14:58;;;;;;;7.85;4.63;;;23.60;90.60;;;;;;5009757;28;20143;-76
2021/05/09 09:17:25;;;;;;;10.88;4.45;;;23.60;90.50;;;;;;5012300;28;20062;-78
2021/05/09 09:20:16;;;;;;;7.65;4.40;;;23.60;90.30;;;;;;5011432;28;20029;-77
2021/05/09 09:22:56;;;;;;;8.98;4.75;;;23.60;90.40;;;;;;5009268;28;20048;-75
2021/05/09 09:25:24;;;;;;;12.95;5.30;;;23.80;90.60;;;;;;5006531;28;20077;-78
2021/05/09 09:27:51;;;;;;;7.53;4.32;;;23.90;90.40;;;;;;5009525;28;20050;-78
2021/05/09 09:30:18;;;;;;;7.53;4.07;;;23.90;90.00;;;;;;5008022;28;20025;-74
2021/05/09 09:33:07;;;;;;;6.93;3.53;;;23.90;90.20;;;;;;5005183;28;20035;-76
2021/05/09 09:35:33;;;;;;;11.07;4.20;;;24.00;90.50;;;;;;5009896;28;20445;-77
2021/05/09 09:37:59;;;;;;;11.30;4.03;;;24.20;89.00;;;;;;5007086;28;20013;-75
2021/05/09 09:40:25;;;;;;;6.50;3.25;;;24.20;89.00;;;;;;5013859;28;20036;-78
2021/05/09 09:42:50;;;;;;;14.27;5.18;;;24.00;89.20;;;;;;5007750;28;20089;-76
2021/05/09 09:45:19;;;;;;;15.30;4.53;;;24.00;89.20;;;;;;5005833;28;20034;-75
2021/05/09 09:47:57;;;;;;;9.07;3.58;;;24.00;88.10;;;;;;5010548;28;21213;-77
2021/05/09 09:50:42;;;;;;;5.00;2.97;;;24.00;88.00;;;;;;5008615;28;20034;-78
2021/05/09 09:53:25;;;;;;;7.75;3.30;;;24.10;88.20;;;;;;5009861;28;20026;-75
2021/05/09 09:56:09;;;;;;;9.32;3.70;;;24.10;86.50;;;;;;5007233;28;20088;-75
2021/05/09 09:58:56;;;;;;;6.18;3.88;;;24.20;86.20;;;;;;5007437;28;20038;-75
2021/05/09 10:01:32;;;;;;;9.88;3.95;;;24.20;85.50;;;;;;4998316;28;20168;-77
2021/05/09 10:04:00;;;;;;;6.15;3.72;;;24.10;85.00;;;;;;5024390;28;20107;-76
2021/05/09 10:06:28;;;;;;;7.93;3.50;;;24.10;86.60;;;;;;5009663;28;20030;-77
2021/05/09 10:08:56;;;;;;;8.25;3.90;;;24.00;86.80;;;;;;5011767;28;20072;-75
2021/05/09 10:11:22;;;;;;;7.25;3.35;;;23.90;86.30;;;;;;5010813;28;20427;-76
2021/05/09 10:13:48;;;;;;;9.40;3.40;;;23.80;86.50;;;;;;5009103;28;20042;-77
2021/05/09 10:16:19;;;;;;;8.98;3.22;;;23.70;86.20;;;;;;5010364;28;20030;-75
2021/05/09 10:18:48;;;;;;;9.48;3.53;;;23.70;85.80;;;;;;5007146;28;20405;-75
2021/05/09 10:21:15;;;;;;;9.73;5.53;;;23.50;85.90;;;;;;5009048;28;20026;-76
2021/05/09 10:24:14;;;;;;;15.93;10.63;;;23.40;86.60;;;;;;4999638;28;20036;-74
2021/05/09 10:26:48;;;;;;;8.02;4.20;;;23.50;85.50;;;;;;5006002;28;20038;-77
2021/05/09 10:32:29;;;;;;;7.80;4.10;;;23.60;85.80;;;;;;5007549;28;20042;-73
2021/05/09 10:34:56;;;;;;;8.65;3.67;;;23.60;85.30;;;;;;5005294;28;20056;-75
2021/05/09 10:40:22;;;;;;;7.45;4.35;;;23.80;86.30;;;;;;5010984;28;20026;-74
2021/05/09 10:43:03;;;;;;;9.18;4.38;;;23.70;86.50;;;;;;4999506;28;20402;-75
2021/05/09 10:45:35;;;;;;;9.98;4.38;;;23.70;87.30;;;;;;5008273;28;20045;-76
2021/05/09 10:48:13;;;;;;;22.02;4.75;;;23.60;86.90;;;;;;5010158;28;20490;-73
2021/05/09 10:50:43;;;;;;;16.50;6.15;;;23.60;86.30;;;;;;5011456;28;20038;-78
2021/05/09 10:53:09;;;;;;;11.90;5.22;;;23.60;84.10;;;;;;5009942;28;20064;-73
2021/05/09 10:55:35;;;;;;;8.50;4.70;;;23.60;84.60;;;;;;5011067;28;20039;-72
2021/05/09 10:58:03;;;;;;;8.55;4.35;;;23.60;85.10;;;;;;5011025;28;20029;-72
2021/05/09 11:00:49;;;;;;;7.15;4.38;;;23.50;85.80;;;;;;5010474;28;20081;-73
2021/05/09 11:03:36;;;;;;;8.20;3.30;;;23.60;86.10;;;;;;5007482;28;20038;-72
2021/05/09 11:06:09;;;;;;;10.52;4.10;;;23.60;86.50;;;;;;5000153;28;20098;-73
2021/05/09 11:08:53;;;;;;;6.03;3.80;;;23.70;86.40;;;;;;4997472;28;20061;-75
2021/05/09 11:11:19;;;;;;;5.78;3.20;;;23.60;87.10;;;;;;5019426;28;20045;-72
2021/05/09 11:13:57;;;;;;;4.82;3.22;;;23.60;87.80;;;;;;5011231;28;20034;-72
2021/05/09 11:16:37;;;;;;;8.75;4.47;;;23.60;87.80;;;;;;5011002;28;20029;-73
2021/05/09 11:19:07;;;;;;;7.13;4.07;;;23.70;87.60;;;;;;5010935;28;20030;-73
2021/05/09 11:21:48;;;;;;;6.15;3.92;;;23.70;87.50;;;;;;5009650;28;20034;-73
2021/05/09 11:24:22;;;;;;;10.48;5.97;;;23.60;86.50;;;;;;5013461;28;20041;-72
2021/05/09 11:26:49;;;;;;;7.75;3.10;;;23.60;87.50;;;;;;5007930;28;20034;-77
2021/05/09 11:29:26;;;;;;;3.45;2.47;;;23.60;87.10;;;;;;4999972;28;20022;-78
2021/05/09 11:31:57;;;;;;;5.70;2.78;;;23.60;87.90;;;;;;5014532;28;20045;-73
2021/05/09 11:34:25;;;;;;;4.78;2.67;;;23.50;88.50;;;;;;5012957;28;20048;-80
2021/05/09 11:36:55;;;;;;;4.43;2.70;;;23.40;89.20;;;;;;5013893;28;20407;-76
2021/05/09 11:39:30;;;;;;;9.43;3.10;;;23.40;89.20;;;;;;5013851;28;20505;-76
2021/05/09 11:42:13;;;;;;;4.65;2.65;;;23.30;89.70;;;;;;5013283;28;20537;-75
2021/05/09 11:44:52;;;;;;;14.18;4.90;;;23.30;89.90;;;;;;5017554;28;20141;-73
2021/05/09 11:47:21;;;;;;;9.48;3.20;;;23.20;90.50;;;;;;5012189;28;20032;-73
2021/05/09 11:49:48;;;;;;;5.28;2.58;;;23.10;91.10;;;;;;5008587;28;20029;-72
2021/05/09 11:52:20;;;;;;;6.47;2.70;;;23.00;91.30;;;;;;5012162;28;20018;-76
2021/05/09 11:54:53;;;;;;;5.55;2.42;;;22.90;91.90;;;;;;5009018;28;20650;-79
2021/05/09 11:57:21;;;;;;;9.38;2.60;;;22.90;92.30;;;;;;5011471;28;20109;-73
2021/05/09 12:00:00;;;;;;;7.18;2.75;;;22.90;92.50;;;;;;5007624;28;20088;-75
2021/05/09 12:02:32;;;;;;;16.13;3.50;;;22.90;92.90;;;;;;5007417;28;20066;-72
2021/05/09 12:05:11;;;;;;;6.50;3.13;;;22.90;93.00;;;;;;5011465;28;20085;-73
2021/05/09 12:07:45;;;;;;;6.38;3.72;;;22.90;93.00;;;;;;5006935;28;20118;-75
2021/05/09 12:10:24;;;;;;;8.80;3.13;;;22.90;93.40;;;;;;5010510;28;20066;-73
2021/05/09 12:13:05;;;;;;;3.42;2.63;;;22.90;93.80;;;;;;5004310;28;20562;-72
2021/05/09 12:15:39;;;;;;;4.07;2.50;;;22.90;93.80;;;;;;5011697;28;20045;-74
2021/05/09 12:18:07;;;;;;;4.10;2.70;;;23.00;94.20;;;;;;5012052;28;20053;-77
2021/05/09 12:20:46;;;;;;;7.20;3.00;;;23.00;93.70;;;;;;5018666;28;20172;-72
2021/05/09 12:23:18;;;;;;;5.47;2.75;;;23.00;93.60;;;;;;5022286;28;20100;-72
2021/05/09 12:25:49;;;;;;;5.20;2.72;;;23.00;93.90;;;;;;5012035;28;20033;-71
2021/05/09 12:28:33;;;;;;;4.50;2.50;;;23.00;93.90;;;;;;5028446;28;20123;-72
2021/05/09 12:31:10;;;;;;;4.18;2.40;;;23.00;94.00;;;;;;5012684;28;20030;-71
2021/05/09 12:33:35;;;;;;;7.10;3.03;;;23.00;93.80;;;;;;5011644;28;20037;-73
2021/05/09 12:36:12;;;;;;;6.18;2.90;;;22.90;93.40;;;;;;5001216;28;20038;-74
2021/05/09 12:38:37;;;;;;;6.65;2.70;;;22.90;94.00;;;;;;5011865;28;20037;-76
2021/05/09 12:41:15;;;;;;;5.07;2.33;;;22.90;93.40;;;;;;5016149;28;20022;-74
2021/05/09 12:43:47;;;;;;;4.30;2.50;;;22.90;93.60;;;;;;5010364;28;20064;-72
2021/05/09 12:46:32;;;;;;;6.85;2.55;;;22.90;93.90;;;;;;5010699;28;20110;-72
2021/05/09 12:49:18;;;;;;;6.93;2.75;;;22.90;94.50;;;;;;5007967;28;20551;-73
2021/05/09 12:52:05;;;;;;;12.07;2.88;;;22.90;94.10;;;;;;5003062;28;20037;-72
2021/05/09 12:54:38;;;;;;;6.70;2.55;;;22.90;95.10;;;;;;5009356;28;20524;-72
2021/05/09 12:57:16;;;;;;;6.70;2.35;;;23.00;95.30;;;;;;5012403;28;20061;-72